sensor_id;sensor_type;location;lat;lon;timestamp;pressure;altitude;pressure_sealevel;temperature;humidity
53041;BME280;39326;42.650;23.248;2022-11-04T00:01:57;92729.81;;;9.68;61.63
53041;BME280;39326;42.650;23.248;2022-11-04T00:04:24;92728.31;;;9.70;61.88
53041;BME280;39326;42.650;23.248;2022-11-04T00:06:51;92725.97;;;9.62;61.93
53041;BME280;39326;42.650;23.248;2022-11-04T00:09:19;92728.63;;;9.62;62.39
53041;BME280;39326;42.650;23.248;2022-11-04T00:11:45;92725.19;;;9.61;62.54
53041;BME280;39326;42.650;23.248;2022-11-04T00:14:30;92728.59;;;9.54;62.33
53041;BME280;39326;42.650;23.248;2022-11-04T00:16:57;92725.53;;;9.52;62.15
53041;BME280;39326;42.650;23.248;2022-11-04T00:19:42;92728.16;;;9.49;62.67
53041;BME280;39326;42.650;23.248;2022-11-04T00:22:27;92726.69;;;9.51;62.81
53041;BME280;39326;42.650;23.248;2022-11-04T00:25:11;92727.44;;;9.52;62.79
53041;BME280;39326;42.650;23.248;2022-11-04T00:28:04;92717.84;;;9.44;63.25
53041;BME280;39326;42.650;23.248;2022-11-04T00:30:52;92722.41;;;9.40;63.27
53041;BME280;39326;42.650;23.248;2022-11-04T00:33:18;92716.72;;;9.41;63.30
53041;BME280;39326;42.650;23.248;2022-11-04T00:35:51;92717.84;;;9.44;63.33
53041;BME280;39326;42.650;23.248;2022-11-04T00:38:18;92713.66;;;9.39;63.61
53041;BME280;39326;42.650;23.248;2022-11-04T00:40:44;92714.41;;;9.36;63.57
53041;BME280;39326;42.650;23.248;2022-11-04T00:43:09;92715.53;;;9.35;63.11
53041;BME280;39326;42.650;23.248;2022-11-04T00:45:36;92705.22;;;9.26;64.21
53041;BME280;39326;42.650;23.248;2022-11-04T00:48:02;92708.63;;;9.27;63.20
53041;BME280;39326;42.650;23.248;2022-11-04T00:50:28;92696.09;;;9.27;63.01
53041;BME280;39326;42.650;23.248;2022-11-04T00:52:58;92690.75;;;9.24;63.50
53041;BME280;39326;42.650;23.248;2022-11-04T00:55:25;92695.34;;;9.31;63.29
53041;BME280;39326;42.650;23.248;2022-11-04T00:57:51;92698.00;;;9.27;63.13
53041;BME280;39326;42.650;23.248;2022-11-04T01:00:17;92685.44;;;9.27;63.20
53041;BME280;39326;42.650;23.248;2022-11-04T01:02:45;92694.44;;;9.09;63.78
53041;BME280;39326;42.650;23.248;2022-11-04T01:05:11;92685.00;;;9.15;63.78
53041;BME280;39326;42.650;23.248;2022-11-04T01:07:37;92686.91;;;9.18;63.55
53041;BME280;39326;42.650;23.248;2022-11-04T01:10:04;92691.84;;;9.19;63.92
53041;BME280;39326;42.650;23.248;2022-11-04T01:12:31;92680.44;;;9.15;63.87
53041;BME280;39326;42.650;23.248;2022-11-04T01:14:57;92680.81;;;9.14;63.82
53041;BME280;39326;42.650;23.248;2022-11-04T01:17:24;92676.22;;;9.11;63.67
53041;BME280;39326;42.650;23.248;2022-11-04T01:19:51;92665.19;;;9.09;63.69
53041;BME280;39326;42.650;23.248;2022-11-04T01:22:17;92661.00;;;9.08;63.79
53041;BME280;39326;42.650;23.248;2022-11-04T01:24:42;92660.22;;;9.07;63.83
53041;BME280;39326;42.650;23.248;2022-11-04T01:27:08;92662.47;;;9.02;64.09
53041;BME280;39326;42.650;23.248;2022-11-04T01:29:34;92666.66;;;9.03;63.99
53041;BME280;39326;42.650;23.248;2022-11-04T01:32:00;92670.41;;;8.98;63.96
53041;BME280;39326;42.650;23.248;2022-11-04T01:34:26;92659.41;;;8.99;64.42
53041;BME280;39326;42.650;23.248;2022-11-04T01:36:52;92657.13;;;8.98;64.06
53041;BME280;39326;42.650;23.248;2022-11-04T01:39:18;92660.94;;;9.00;64.09
53041;BME280;39326;42.650;23.248;2022-11-04T01:41:44;92670.47;;;9.02;64.12
53041;BME280;39326;42.650;23.248;2022-11-04T01:47:14;92657.78;;;8.88;64.56
53041;BME280;39326;42.650;23.248;2022-11-04T01:49:41;92660.88;;;8.90;64.33
53041;BME280;39326;42.650;23.248;2022-11-04T01:52:13;92659.75;;;8.94;64.55
53041;BME280;39326;42.650;23.248;2022-11-04T01:54:41;92653.28;;;8.92;64.96
53041;BME280;39326;42.650;23.248;2022-11-04T01:57:11;92655.94;;;8.92;64.91
53041;BME280;39326;42.650;23.248;2022-11-04T01:59:39;92651.38;;;8.92;65.13
53041;BME280;39326;42.650;23.248;2022-11-04T02:02:06;92655.84;;;8.81;65.19
53041;BME280;39326;42.650;23.248;2022-11-04T02:04:33;92646.38;;;8.84;65.25
53041;BME280;39326;42.650;23.248;2022-11-04T02:07:01;92642.97;;;8.83;65.31
53041;BME280;39326;42.650;23.248;2022-11-04T02:09:29;92639.13;;;8.81;65.32
53041;BME280;39326;42.650;23.248;2022-11-04T02:11:57;92642.13;;;8.76;65.67
53041;BME280;39326;42.650;23.248;2022-11-04T02:14:42;92638.22;;;8.62;65.72
53041;BME280;39326;42.650;23.248;2022-11-04T02:22:45;92638.22;;;8.59;66.46
53041;BME280;39326;42.650;23.248;2022-11-04T02:31:30;92627.16;;;8.57;66.59
53041;BME280;39326;42.650;23.248;2022-11-04T02:34:18;92629.03;;;8.53;66.76
53041;BME280;39326;42.650;23.248;2022-11-04T02:37:12;92629.00;;;8.49;66.79
53041;BME280;39326;42.650;23.248;2022-11-04T02:45:29;92619.78;;;8.39;66.29
53041;BME280;39326;42.650;23.248;2022-11-04T02:48:06;92629.28;;;8.40;66.81
53041;BME280;39326;42.650;23.248;2022-11-04T02:53:17;92628.16;;;8.41;66.74
53041;BME280;39326;42.650;23.248;2022-11-04T02:55:49;92624.44;;;8.46;66.82
53041;BME280;39326;42.650;23.248;2022-11-04T02:58:34;92626.69;;;8.44;67.08
53041;BME280;39326;42.650;23.248;2022-11-04T03:01:03;92618.28;;;8.42;67.14
53041;BME280;39326;42.650;23.248;2022-11-04T03:03:36;92625.88;;;8.40;67.18
53041;BME280;39326;42.650;23.248;2022-11-04T03:06:03;92623.22;;;8.40;66.80
53041;BME280;39326;42.650;23.248;2022-11-04T03:08:43;92622.03;;;8.37;67.19
53041;BME280;39326;42.650;23.248;2022-11-04T03:11:14;92604.88;;;8.28;67.09
53041;BME280;39326;42.650;23.248;2022-11-04T03:16:16;92623.50;;;8.31;67.52
53041;BME280;39326;42.650;23.248;2022-11-04T03:21:40;92617.34;;;8.24;67.56
53041;BME280;39326;42.650;23.248;2022-11-04T03:24:09;92612.47;;;8.26;67.57
53041;BME280;39326;42.650;23.248;2022-11-04T03:26:45;92619.25;;;8.23;67.71
53041;BME280;39326;42.650;23.248;2022-11-04T03:31:53;92617.34;;;8.24;68.21
53041;BME280;39326;42.650;23.248;2022-11-04T03:34:23;92621.47;;;8.17;68.05
53041;BME280;39326;42.650;23.248;2022-11-04T03:36:49;92627.88;;;8.13;68.49
53041;BME280;39326;42.650;23.248;2022-11-04T03:39:16;92620.66;;;8.10;68.22
53041;BME280;39326;42.650;23.248;2022-11-04T03:42:03;92625.56;;;8.08;69.20
53041;BME280;39326;42.650;23.248;2022-11-04T03:44:56;92617.63;;;8.11;68.40
53041;BME280;39326;42.650;23.248;2022-11-04T03:47:25;92615.72;;;8.08;68.68
53041;BME280;39326;42.650;23.248;2022-11-04T03:49:58;92616.78;;;8.04;68.50
53041;BME280;39326;42.650;23.248;2022-11-04T03:52:25;92613.34;;;8.00;68.35
53041;BME280;39326;42.650;23.248;2022-11-04T03:54:52;92613.00;;;8.05;68.41
53041;BME280;39326;42.650;23.248;2022-11-04T04:00:31;92614.88;;;8.01;69.44
53041;BME280;39326;42.650;23.248;2022-11-04T04:10:36;92599.28;;;7.99;70.72
53041;BME280;39326;42.650;23.248;2022-11-04T04:18:34;92606.47;;;7.95;70.50
53041;BME280;39326;42.650;23.248;2022-11-04T04:21:06;92598.47;;;7.91;70.42
53041;BME280;39326;42.650;23.248;2022-11-04T04:23:34;92601.13;;;7.91;70.56
53041;BME280;39326;42.650;23.248;2022-11-04T04:26:41;92599.09;;;7.81;70.75
53041;BME280;39326;42.650;23.248;2022-11-04T04:29:27;92599.53;;;7.83;70.88
53041;BME280;39326;42.650;23.248;2022-11-04T04:31:55;92596.03;;;7.76;70.75
53041;BME280;39326;42.650;23.248;2022-11-04T04:34:26;92600.22;;;7.77;70.55
53041;BME280;39326;42.650;23.248;2022-11-04T04:36:57;92595.22;;;7.72;71.05
53041;BME280;39326;42.650;23.248;2022-11-04T04:39:28;92597.56;;;7.77;70.94
53041;BME280;39326;42.650;23.248;2022-11-04T04:42:15;92596.81;;;7.76;70.96
53041;BME280;39326;42.650;23.248;2022-11-04T04:45:01;92598.59;;;7.69;70.83
53041;BME280;39326;42.650;23.248;2022-11-04T04:50:03;92604.31;;;7.71;71.03
53041;BME280;39326;42.650;23.248;2022-11-04T04:52:33;92598.19;;;7.66;71.31
53041;BME280;39326;42.650;23.248;2022-11-04T04:55:01;92598.13;;;7.59;71.79
53041;BME280;39326;42.650;23.248;2022-11-04T04:57:27;92601.97;;;7.65;71.51
53041;BME280;39326;42.650;23.248;2022-11-04T04:59:53;92605.41;;;7.66;71.74
53041;BME280;39326;42.650;23.248;2022-11-04T05:02:19;92609.22;;;7.69;71.96
53041;BME280;39326;42.650;23.248;2022-11-04T05:04:45;92605.78;;;7.68;72.29
53041;BME280;39326;42.650;23.248;2022-11-04T05:07:11;92607.59;;;7.60;72.45
53041;BME280;39326;42.650;23.248;2022-11-04T05:09:37;92610.25;;;7.60;71.92
53041;BME280;39326;42.650;23.248;2022-11-04T05:12:04;92610.94;;;7.54;72.40
53041;BME280;39326;42.650;23.248;2022-11-04T05:14:31;92608.66;;;7.52;72.42
53041;BME280;39326;42.650;23.248;2022-11-04T05:16:57;92605.63;;;7.54;72.54
53041;BME280;39326;42.650;23.248;2022-11-04T05:19:23;92603.34;;;7.52;72.43
53041;BME280;39326;42.650;23.248;2022-11-04T05:21:50;92612.06;;;7.53;72.44
53041;BME280;39326;42.650;23.248;2022-11-04T05:24:16;92612.06;;;7.53;72.44
53041;BME280;39326;42.650;23.248;2022-11-04T05:26:41;92610.13;;;7.50;72.75
53041;BME280;39326;42.650;23.248;2022-11-04T05:29:08;92616.88;;;7.44;73.01
53041;BME280;39326;42.650;23.248;2022-11-04T05:31:34;92624.13;;;7.47;73.04
53041;BME280;39326;42.650;23.248;2022-11-04T05:34:00;92623.81;;;7.52;72.70
53041;BME280;39326;42.650;23.248;2022-11-04T05:36:27;92624.59;;;7.56;73.01
53041;BME280;39326;42.650;23.248;2022-11-04T05:38:53;92624.59;;;7.56;73.22
53041;BME280;39326;42.650;23.248;2022-11-04T05:41:22;92628.84;;;7.60;72.92
53041;BME280;39326;42.650;23.248;2022-11-04T05:43:59;92633.78;;;7.62;73.16
53041;BME280;39326;42.650;23.248;2022-11-04T05:46:26;92636.44;;;7.62;72.96
53041;BME280;39326;42.650;23.248;2022-11-04T05:48:52;92646.38;;;7.69;73.08
53041;BME280;39326;42.650;23.248;2022-11-04T05:51:21;92640.28;;;7.68;73.23
53041;BME280;39326;42.650;23.248;2022-11-04T05:53:48;92645.28;;;7.70;73.38
53041;BME280;39326;42.650;23.248;2022-11-04T05:56:14;92641.50;;;7.74;73.60
53041;BME280;39326;42.650;23.248;2022-11-04T05:58:40;92642.31;;;7.78;72.86
53041;BME280;39326;42.650;23.248;2022-11-04T06:03:52;92639.72;;;7.82;73.12
53041;BME280;39326;42.650;23.248;2022-11-04T06:06:19;92641.25;;;7.86;73.32
53041;BME280;39326;42.650;23.248;2022-11-04T06:08:45;92643.59;;;7.91;73.70
53041;BME280;39326;42.650;23.248;2022-11-04T06:11:11;92645.97;;;8.00;73.26
53041;BME280;39326;42.650;23.248;2022-11-04T06:13:38;92641.84;;;8.03;73.17
53041;BME280;39326;42.650;23.248;2022-11-04T06:16:04;92644.94;;;8.08;73.07
53041;BME280;39326;42.650;23.248;2022-11-04T06:18:30;92651.06;;;8.16;73.10
53041;BME280;39326;42.650;23.248;2022-11-04T06:23:42;92637.53;;;8.28;72.91
53041;BME280;39326;42.650;23.248;2022-11-04T06:26:10;92641.41;;;8.38;72.80
53041;BME280;39326;42.650;23.248;2022-11-04T06:28:36;92646.00;;;8.41;73.12
53041;BME280;39326;42.650;23.248;2022-11-04T06:31:03;92643.06;;;8.50;72.93
53041;BME280;39326;42.650;23.248;2022-11-04T06:33:30;92645.78;;;8.57;72.70
53041;BME280;39326;42.650;23.248;2022-11-04T06:36:00;92648.50;;;8.64;72.60
53041;BME280;39326;42.650;23.248;2022-11-04T06:38:28;92628.38;;;8.66;72.64
53041;BME280;39326;42.650;23.248;2022-11-04T06:40:54;92651.66;;;8.77;72.42
53041;BME280;39326;42.650;23.248;2022-11-04T06:43:21;92652.84;;;8.83;72.41
53041;BME280;39326;42.650;23.248;2022-11-04T06:45:56;92653.59;;;8.87;72.45
53041;BME280;39326;42.650;23.248;2022-11-04T06:48:23;92657.38;;;8.82;72.76
53041;BME280;39326;42.650;23.248;2022-11-04T06:50:48;92651.00;;;8.90;72.92
53041;BME280;39326;42.650;23.248;2022-11-04T06:53:14;92658.88;;;8.80;72.93
53041;BME280;39326;42.650;23.248;2022-11-04T06:55:40;92648.72;;;8.92;72.73
53041;BME280;39326;42.650;23.248;2022-11-04T06:58:06;92652.59;;;9.06;72.61
53041;BME280;39326;42.650;23.248;2022-11-04T07:00:32;92641.97;;;9.02;72.15
53041;BME280;39326;42.650;23.248;2022-11-04T07:02:58;92644.34;;;9.21;72.50
53041;BME280;39326;42.650;23.248;2022-11-04T07:05:25;92640.94;;;9.24;72.33
53041;BME280;39326;42.650;23.248;2022-11-04T07:07:51;92647.06;;;9.32;71.83
53041;BME280;39326;42.650;23.248;2022-11-04T07:10:17;92644.91;;;9.52;71.79
53041;BME280;39326;42.650;23.248;2022-11-04T07:12:43;92639.94;;;9.50;71.83
53041;BME280;39326;42.650;23.248;2022-11-04T07:15:10;92630.09;;;9.58;71.40
53041;BME280;39326;42.650;23.248;2022-11-04T07:17:36;92629.03;;;9.77;71.08
53041;BME280;39326;42.650;23.248;2022-11-04T07:20:03;92634.00;;;9.86;70.17
53041;BME280;39326;42.650;23.248;2022-11-04T07:22:30;92626.31;;;9.70;70.66
53041;BME280;39326;42.650;23.248;2022-11-04T07:24:56;92630.16;;;9.76;70.45
53041;BME280;39326;42.650;23.248;2022-11-04T07:27:25;92615.63;;;9.52;71.20
53041;BME280;39326;42.650;23.248;2022-11-04T07:29:50;92627.13;;;9.77;70.87
53041;BME280;39326;42.650;23.248;2022-11-04T07:32:17;92618.75;;;9.82;70.58
53041;BME280;39326;42.650;23.248;2022-11-04T07:34:44;92619.97;;;9.96;70.03
53041;BME280;39326;42.650;23.248;2022-11-04T07:37:10;92616.16;;;9.97;70.67
53041;BME280;39326;42.650;23.248;2022-11-04T07:39:36;92613.53;;;10.04;70.39
53041;BME280;39326;42.650;23.248;2022-11-04T07:42:02;92615.06;;;10.05;70.06
53041;BME280;39326;42.650;23.248;2022-11-04T07:44:28;92606.72;;;10.24;70.21
53041;BME280;39326;42.650;23.248;2022-11-04T07:46:56;92609.44;;;10.53;68.75
53041;BME280;39326;42.650;23.248;2022-11-04T07:49:22;92610.56;;;10.55;68.96
53041;BME280;39326;42.650;23.248;2022-11-04T07:51:50;92612.88;;;10.78;68.43
53041;BME280;39326;42.650;23.248;2022-11-04T07:54:16;92610.19;;;10.93;67.96
53041;BME280;39326;42.650;23.248;2022-11-04T07:56:42;92603.69;;;11.11;67.30
53041;BME280;39326;42.650;23.248;2022-11-04T07:59:09;92601.72;;;11.30;66.95
53041;BME280;39326;42.650;23.248;2022-11-04T08:01:36;92607.06;;;11.37;66.72
53041;BME280;39326;42.650;23.248;2022-11-04T08:04:02;92606.63;;;11.56;66.31
53041;BME280;39326;42.650;23.248;2022-11-04T08:06:29;92603.53;;;11.68;66.03
53041;BME280;39326;42.650;23.248;2022-11-04T08:08:57;92599.41;;;11.53;65.77
53041;BME280;39326;42.650;23.248;2022-11-04T08:11:23;92596.66;;;11.78;65.46
53041;BME280;39326;42.650;23.248;2022-11-04T08:13:54;92593.09;;;11.99;64.83
53041;BME280;39326;42.650;23.248;2022-11-04T08:16:23;92586.09;;;12.19;63.85
53041;BME280;39326;42.650;23.248;2022-11-04T08:18:49;92588.59;;;12.48;63.27
53041;BME280;39326;42.650;23.248;2022-11-04T08:21:20;92576.88;;;12.31;62.71
53041;BME280;39326;42.650;23.248;2022-11-04T08:23:47;92577.69;;;12.24;63.42
53041;BME280;39326;42.650;23.248;2022-11-04T08:26:17;92584.66;;;12.63;62.60
53041;BME280;39326;42.650;23.248;2022-11-04T08:28:43;92571.31;;;12.67;62.42
53041;BME280;39326;42.650;23.248;2022-11-04T08:31:17;92575.63;;;12.98;61.44
53041;BME280;39326;42.650;23.248;2022-11-04T08:33:43;92572.13;;;13.05;61.25
53041;BME280;39326;42.650;23.248;2022-11-04T08:36:17;92567.97;;;13.35;60.36
53041;BME280;39326;42.650;23.248;2022-11-04T08:38:44;92566.50;;;13.64;60.41
53041;BME280;39326;42.650;23.248;2022-11-04T08:41:11;92569.25;;;13.57;60.20
53041;BME280;39326;42.650;23.248;2022-11-04T08:43:38;92566.19;;;13.93;59.50
53041;BME280;39326;42.650;23.248;2022-11-04T08:46:06;92568.47;;;14.21;58.57
53041;BME280;39326;42.650;23.248;2022-11-04T08:48:36;92565.81;;;14.48;56.82
53041;BME280;39326;42.650;23.248;2022-11-04T08:51:04;92565.81;;;14.48;57.20
53041;BME280;39326;42.650;23.248;2022-11-04T08:53:30;92562.72;;;14.50;56.82
53041;BME280;39326;42.650;23.248;2022-11-04T08:55:56;92564.34;;;14.44;57.19
53041;BME280;39326;42.650;23.248;2022-11-04T08:58:23;92554.13;;;14.58;57.39
53041;BME280;39326;42.650;23.248;2022-11-04T09:00:50;92553.25;;;14.92;56.79
53041;BME280;39326;42.650;23.248;2022-11-04T09:03:16;92556.91;;;15.02;56.30
53041;BME280;39326;42.650;23.248;2022-11-04T09:05:42;92554.81;;;15.33;55.37
53041;BME280;39326;42.650;23.248;2022-11-04T09:08:12;92548.06;;;15.25;55.11
53041;BME280;39326;42.650;23.248;2022-11-04T09:10:44;92542.28;;;15.26;54.75
53041;BME280;39326;42.650;23.248;2022-11-04T09:13:11;92535.25;;;15.32;55.29
53041;BME280;39326;42.650;23.248;2022-11-04T09:15:38;92541.66;;;15.38;54.57
53041;BME280;39326;42.650;23.248;2022-11-04T09:18:05;92533.38;;;15.89;53.89
53041;BME280;39326;42.650;23.248;2022-11-04T09:20:31;92522.69;;;16.05;52.78
53041;BME280;39326;42.650;23.248;2022-11-04T09:22:57;92527.38;;;16.01;52.77
53041;BME280;39326;42.650;23.248;2022-11-04T09:25:24;92527.66;;;15.67;53.09
53041;BME280;39326;42.650;23.248;2022-11-04T09:27:50;92520.50;;;15.40;54.13
53041;BME280;39326;42.650;23.248;2022-11-04T09:30:17;92522.81;;;15.98;52.70
53041;BME280;39326;42.650;23.248;2022-11-04T09:32:43;92522.63;;;15.89;53.07
53041;BME280;39326;42.650;23.248;2022-11-04T09:35:10;92517.56;;;15.91;52.93
53041;BME280;39326;42.650;23.248;2022-11-04T09:37:36;92506.34;;;15.96;53.15
53041;BME280;39326;42.650;23.248;2022-11-04T09:40:02;92501.75;;;16.29;51.99
53041;BME280;39326;42.650;23.248;2022-11-04T09:42:49;92499.81;;;16.13;51.27
53041;BME280;39326;42.650;23.248;2022-11-04T09:45:25;92500.94;;;16.32;51.64
53041;BME280;39326;42.650;23.248;2022-11-04T09:47:55;92488.91;;;16.20;51.27
53041;BME280;39326;42.650;23.248;2022-11-04T09:50:27;92486.38;;;16.46;51.15
53041;BME280;39326;42.650;23.248;2022-11-04T09:52:57;92484.53;;;16.26;51.19
53041;BME280;39326;42.650;23.248;2022-11-04T09:55:38;92476.88;;;16.58;50.52
53041;BME280;39326;42.650;23.248;2022-11-04T09:58:11;92466.50;;;16.89;49.70
53041;BME280;39326;42.650;23.248;2022-11-04T10:00:38;92469.69;;;17.00;49.95
53041;BME280;39326;42.650;23.248;2022-11-04T10:08:50;92454.09;;;17.62;47.85
53041;BME280;39326;42.650;23.248;2022-11-04T10:11:25;92457.13;;;17.51;47.87
53041;BME280;39326;42.650;23.248;2022-11-04T10:17:12;92448.78;;;17.04;47.61
53041;BME280;39326;42.650;23.248;2022-11-04T10:25:14;92431.41;;;16.76;48.53
53041;BME280;39326;42.650;23.248;2022-11-04T10:27:44;92434.34;;;16.82;48.79
53041;BME280;39326;42.650;23.248;2022-11-04T10:30:17;92419.50;;;17.06;48.55
53041;BME280;39326;42.650;23.248;2022-11-04T10:35:57;92423.09;;;17.28;48.06
53041;BME280;39326;42.650;23.248;2022-11-04T10:43:55;92397.41;;;17.91;46.77
53041;BME280;39326;42.650;23.248;2022-11-04T10:51:55;92379.81;;;17.86;45.61
53041;BME280;39326;42.650;23.248;2022-11-04T10:54:24;92373.06;;;18.29;45.48
53041;BME280;39326;42.650;23.248;2022-11-04T10:56:52;92374.72;;;18.49;45.09
53041;BME280;39326;42.650;23.248;2022-11-04T10:59:45;92358.47;;;18.74;44.27
53041;BME280;39326;42.650;23.248;2022-11-04T11:02:14;92354.66;;;18.37;44.91
53041;BME280;39326;42.650;23.248;2022-11-04T11:04:40;92357.28;;;18.62;44.29
53041;BME280;39326;42.650;23.248;2022-11-04T11:07:08;92341.56;;;18.83;43.76
53041;BME280;39326;42.650;23.248;2022-11-04T11:14:41;92324.75;;;19.63;42.33
53041;BME280;39326;42.650;23.248;2022-11-04T11:19:56;92328.91;;;19.24;42.44
53041;BME280;39326;42.650;23.248;2022-11-04T11:24:52;92321.69;;;20.01;41.40
53041;BME280;39326;42.650;23.248;2022-11-04T11:27:19;92303.44;;;19.74;41.29
53041;BME280;39326;42.650;23.248;2022-11-04T11:29:47;92309.66;;;19.93;41.29
53041;BME280;39326;42.650;23.248;2022-11-04T11:32:31;92308.34;;;20.16;40.53
53041;BME280;39326;42.650;23.248;2022-11-04T11:34:57;92298.97;;;19.98;41.46
53041;BME280;39326;42.650;23.248;2022-11-04T11:37:27;92295.25;;;20.14;40.83
53041;BME280;39326;42.650;23.248;2022-11-04T11:39:56;92279.91;;;20.11;40.97
53041;BME280;39326;42.650;23.248;2022-11-04T11:42:23;92277.00;;;19.87;40.75
53041;BME280;39326;42.650;23.248;2022-11-04T11:44:53;92278.28;;;20.32;40.67
53041;BME280;39326;42.650;23.248;2022-11-04T11:50:18;92271.31;;;19.45;41.36
53041;BME280;39326;42.650;23.248;2022-11-04T11:52:45;92269.31;;;19.77;40.62
53041;BME280;39326;42.650;23.248;2022-11-04T11:55:16;92251.56;;;19.66;40.97
53041;BME280;39326;42.650;23.248;2022-11-04T12:00:20;92246.22;;;18.60;43.26
53041;BME280;39326;42.650;23.248;2022-11-04T12:03:15;92264.25;;;18.20;43.84
53041;BME280;39326;42.650;23.248;2022-11-04T12:08:33;92257.72;;;18.52;43.20
53041;BME280;39326;42.650;23.248;2022-11-04T12:13:43;92250.00;;;18.85;44.06
53041;BME280;39326;42.650;23.248;2022-11-04T12:16:23;92244.22;;;18.74;44.01
53041;BME280;39326;42.650;23.248;2022-11-04T12:22:23;92252.38;;;18.39;43.46
53041;BME280;39326;42.650;23.248;2022-11-04T12:30:13;92247.09;;;18.35;43.86
53041;BME280;39326;42.650;23.248;2022-11-04T12:35:31;92238.06;;;18.51;44.39
53041;BME280;39326;42.650;23.248;2022-11-04T12:40:38;92240.38;;;18.40;44.06
53041;BME280;39326;42.650;23.248;2022-11-04T12:46:24;92216.94;;;18.59;43.15
53041;BME280;39326;42.650;23.248;2022-11-04T12:57:51;92225.94;;;18.34;43.18
53041;BME280;39326;42.650;23.248;2022-11-04T13:00:21;92212.56;;;18.08;44.34
53041;BME280;39326;42.650;23.248;2022-11-04T13:05:58;92228.63;;;17.65;44.51
53041;BME280;39326;42.650;23.248;2022-11-04T13:08:51;92227.53;;;17.62;44.71
53041;BME280;39326;42.650;23.248;2022-11-04T13:11:24;92240.44;;;17.32;45.29
53041;BME280;39326;42.650;23.248;2022-11-04T13:14:08;92237.78;;;17.67;44.38
53041;BME280;39326;42.650;23.248;2022-11-04T13:16:41;92233.34;;;17.86;44.07
53041;BME280;39326;42.650;23.248;2022-11-04T13:19:34;92234.19;;;17.96;44.05
53041;BME280;39326;42.650;23.248;2022-11-04T13:22:06;92246.50;;;17.97;44.07
53041;BME280;39326;42.650;23.248;2022-11-04T13:24:36;92243.03;;;17.96;44.26
53041;BME280;39326;42.650;23.248;2022-11-04T13:27:12;92235.25;;;17.98;44.47
53041;BME280;39326;42.650;23.248;2022-11-04T13:29:41;92242.53;;;17.89;45.17
53041;BME280;39326;42.650;23.248;2022-11-04T13:32:24;92240.78;;;17.95;43.97
53041;BME280;39326;42.650;23.248;2022-11-04T13:35:03;92229.34;;;17.91;44.92
53041;BME280;39326;42.650;23.248;2022-11-04T13:40:11;92240.88;;;17.44;45.65
53041;BME280;39326;42.650;23.248;2022-11-04T13:45:12;92226.44;;;17.12;45.52
53041;BME280;39326;42.650;23.248;2022-11-04T13:47:47;92227.81;;;17.29;46.31
53041;BME280;39326;42.650;23.248;2022-11-04T13:50:37;92225.00;;;17.46;46.11
53041;BME280;39326;42.650;23.248;2022-11-04T13:53:05;92219.06;;;17.51;46.41
53041;BME280;39326;42.650;23.248;2022-11-04T13:55:33;92216.13;;;17.58;45.89
53041;BME280;39326;42.650;23.248;2022-11-04T13:58:04;92211.81;;;17.60;45.38
53041;BME280;39326;42.650;23.248;2022-11-04T14:00:34;92207.16;;;17.61;45.44
53041;BME280;39326;42.650;23.248;2022-11-04T14:06:06;92206.66;;;17.53;45.19
53041;BME280;39326;42.650;23.248;2022-11-04T14:08:33;92217.22;;;17.48;45.71
53041;BME280;39326;42.650;23.248;2022-11-04T14:11:04;92207.09;;;17.52;46.02
53041;BME280;39326;42.650;23.248;2022-11-04T14:16:09;92212.47;;;17.52;46.20
53041;BME280;39326;42.650;23.248;2022-11-04T14:18:38;92206.97;;;17.43;46.30
53041;BME280;39326;42.650;23.248;2022-11-04T14:21:10;92211.00;;;17.38;46.48
53041;BME280;39326;42.650;23.248;2022-11-04T14:23:39;92211.88;;;17.10;47.96
53041;BME280;39326;42.650;23.248;2022-11-04T14:26:14;92213.06;;;17.09;48.12
53041;BME280;39326;42.650;23.248;2022-11-04T14:28:44;92216.28;;;16.91;48.48
53041;BME280;39326;42.650;23.248;2022-11-04T14:31:42;92217.38;;;16.93;47.57
53041;BME280;39326;42.650;23.248;2022-11-04T14:36:55;92209.91;;;16.72;47.56
53041;BME280;39326;42.650;23.248;2022-11-04T14:39:23;92217.75;;;16.66;47.58
53041;BME280;39326;42.650;23.248;2022-11-04T14:41:58;92206.44;;;16.59;47.84
53041;BME280;39326;42.650;23.248;2022-11-04T14:44:37;92210.09;;;16.52;47.96
53041;BME280;39326;42.650;23.248;2022-11-04T14:47:19;92207.28;;;16.43;48.53
53041;BME280;39326;42.650;23.248;2022-11-04T14:50:01;92207.06;;;16.37;47.64
53041;BME280;39326;42.650;23.248;2022-11-04T14:52:36;92194.94;;;16.29;47.63
53041;BME280;39326;42.650;23.248;2022-11-04T14:55:12;92190.00;;;16.28;47.02
53041;BME280;39326;42.650;23.248;2022-11-04T14:57:45;92182.97;;;16.17;47.07
53041;BME280;39326;42.650;23.248;2022-11-04T15:00:29;92181.59;;;16.13;46.88
53041;BME280;39326;42.650;23.248;2022-11-04T15:03:03;92176.06;;;16.04;45.64
53041;BME280;39326;42.650;23.248;2022-11-04T15:05:30;92176.25;;;15.96;45.55
53041;BME280;39326;42.650;23.248;2022-11-04T15:08:30;92175.66;;;15.89;45.89
53041;BME280;39326;42.650;23.248;2022-11-04T15:14:20;92172.31;;;15.56;45.41
53041;BME280;39326;42.650;23.248;2022-11-04T15:16:49;92164.69;;;15.38;45.30
53041;BME280;39326;42.650;23.248;2022-11-04T15:19:31;92172.16;;;15.14;45.02
53041;BME280;39326;42.650;23.248;2022-11-04T15:21:59;92182.66;;;15.08;43.16
53041;BME280;39326;42.650;23.248;2022-11-04T15:24:26;92169.56;;;15.27;42.67
53041;BME280;39326;42.650;23.248;2022-11-04T15:26:53;92171.66;;;15.19;43.23
53041;BME280;39326;42.650;23.248;2022-11-04T15:29:23;92174.25;;;15.23;43.47
53041;BME280;39326;42.650;23.248;2022-11-04T15:31:57;92179.38;;;15.01;44.72
53041;BME280;39326;42.650;23.248;2022-11-04T15:34:25;92171.75;;;14.99;45.08
53041;BME280;39326;42.650;23.248;2022-11-04T15:36:55;92173.44;;;14.93;45.02
53041;BME280;39326;42.650;23.248;2022-11-04T15:39:24;92180.25;;;14.78;45.98
53041;BME280;39326;42.650;23.248;2022-11-04T15:41:56;92181.09;;;14.75;46.83
53041;BME280;39326;42.650;23.248;2022-11-04T15:44:45;92182.50;;;14.63;47.12